Time;durP1;ratioP1;P1;durP2;ratioP2;P2;SDS_P1;SDS_P2;PMS_P1;PMS_P2;Temp;Humidity;BMP_temperature;BMP_pressure;BME280_temperature;BME280_humidity;BME280_pressure;Samples;Min_cycle;Max_cycle;Signal;HPM_P1;HPM_P2
2022/08/07 00:00:14;;;;;;;8.23;3.08;;;;;;;;;;5014547;28;20767;-60
2022/08/07 00:02:39;;;;;;;4.35;2.55;;;;;;;;;;5015898;28;20216;-60
2022/08/07 00:05:04;;;;;;;6.00;3.03;;;;;;;;;;5015318;28;20209;-60
2022/08/07 00:07:30;;;;;;;5.63;2.97;;;;;;;;;;5014836;28;20311;-60
2022/08/07 00:09:55;;;;;;;5.53;3.13;;;;;;;;;;5015600;28;20286;-60
2022/08/07 00:12:20;;;;;;;7.30;2.95;;;;;;;;;;5015229;28;20683;-60
2022/08/07 00:14:45;;;;;;;5.60;3.00;;;;;;;;;;5014474;28;20286;-60
2022/08/07 00:17:11;;;;;;;6.85;3.45;;;;;;;;;;5014913;28;20209;-60
2022/08/07 00:19:36;;;;;;;5.40;3.30;;;;;;;;;;5015148;28;20216;-60
2022/08/07 00:22:02;;;;;;;5.57;3.03;;;;;;;;;;5014163;28;20219;-60
2022/08/07 00:24:27;;;;;;;4.82;2.92;;;;;;;;;;5015353;28;20208;-60
2022/08/07 00:26:52;;;;;;;5.65;3.20;;;;;;;;;;5014470;28;20220;-60
2022/08/07 00:29:18;;;;;;;5.85;3.42;;;;;;;;;;5014538;28;20213;-60
2022/08/07 00:31:43;;;;;;;4.95;3.15;;;;;;;;;;5014993;28;20221;-60
2022/08/07 00:34:09;;;;;;;5.00;3.05;;;;;;;;;;5014047;28;20303;-60
2022/08/07 00:36:34;;;;;;;4.75;2.90;;;;;;;;;;5014836;28;20711;-60
2022/08/07 00:39:00;;;;;;;6.32;3.50;;;;;;;;;;5015140;28;20240;-60
2022/08/07 00:41:26;;;;;;;5.75;3.65;;;;;;;;;;5013868;28;20217;-60
2022/08/07 00:43:51;;;;;;;5.53;3.50;;;;;;;;;;5015213;28;20235;-60
2022/08/07 00:46:17;;;;;;;7.47;3.33;;;;;;;;;;5014203;28;20240;-60
2022/08/07 00:48:42;;;;;;;6.18;3.67;;;;;;;;;;5014383;28;20686;-60
2022/08/07 00:51:07;;;;;;;6.40;3.85;;;;;;;;;;5014220;28;20219;-60
2022/08/07 00:53:33;;;;;;;5.65;3.58;;;;;;;;;;5013385;28;20303;-60
2022/08/07 00:55:58;;;;;;;6.32;4.45;;;;;;;;;;5013800;28;20323;-60
2022/08/07 00:58:23;;;;;;;6.00;3.83;;;;;;;;;;5014507;28;20208;-60
2022/08/07 01:00:48;;;;;;;5.43;3.92;;;;;;;;;;5013068;28;20212;-60
2022/08/07 01:03:14;;;;;;;5.75;4.07;;;;;;;;;;5012141;28;20213;-60
2022/08/07 01:05:39;;;;;;;7.25;3.80;;;;;;;;;;5014543;28;20205;-60
2022/08/07 01:08:04;;;;;;;4.95;3.60;;;;;;;;;;5012506;28;20252;-60
2022/08/07 01:10:30;;;;;;;6.25;3.70;;;;;;;;;;5013643;28;20703;-60
2022/08/07 01:12:55;;;;;;;5.82;3.95;;;;;;;;;;4987409;28;20716;-60
2022/08/07 01:15:21;;;;;;;7.40;3.60;;;;;;;;;;4994814;28;20249;-60
2022/08/07 01:17:46;;;;;;;4.88;3.65;;;;;;;;;;4973308;28;20704;-60
2022/08/07 01:20:12;;;;;;;8.10;3.92;;;;;;;;;;4976662;28;20233;-60
2022/08/07 01:22:38;;;;;;;6.30;3.88;;;;;;;;;;4977713;28;20217;-60
2022/08/07 01:25:03;;;;;;;6.00;3.75;;;;;;;;;;4983544;28;20636;-60
2022/08/07 01:27:29;;;;;;;5.90;3.58;;;;;;;;;;4984931;28;20236;-60
2022/08/07 01:29:54;;;;;;;8.05;4.30;;;;;;;;;;4999651;28;20821;-60
2022/08/07 01:32:19;;;;;;;8.40;3.70;;;;;;;;;;5002628;28;20220;-60
2022/08/07 01:34:44;;;;;;;7.53;4.38;;;;;;;;;;5002789;28;20764;-60
2022/08/07 01:37:12;;;;;;;6.50;3.97;;;;;;;;;;5003022;28;20224;-60
2022/08/07 01:39:37;;;;;;;8.63;4.38;;;;;;;;;;4992873;28;20304;-60
2022/08/07 01:42:03;;;;;;;7.38;4.20;;;;;;;;;;4992806;28;20226;-60
2022/08/07 01:44:28;;;;;;;6.80;4.47;;;;;;;;;;4995052;28;20321;-60
2022/08/07 01:46:53;;;;;;;6.53;4.35;;;;;;;;;;4996956;28;20221;-60
2022/08/07 01:49:18;;;;;;;6.43;4.32;;;;;;;;;;5001858;28;20307;-60
2022/08/07 01:51:44;;;;;;;7.63;5.05;;;;;;;;;;5002754;28;21024;-60
2022/08/07 01:54:09;;;;;;;7.32;4.75;;;;;;;;;;4998802;28;20224;-60
2022/08/07 01:56:40;;;;;;;8.48;4.95;;;;;;;;;;4986246;28;20224;-60
2022/08/07 01:59:08;;;;;;;8.90;5.07;;;;;;;;;;5000378;28;20785;-60
2022/08/07 02:01:35;;;;;;;8.50;5.35;;;;;;;;;;4999344;28;20654;-60
2022/08/07 02:04:06;;;;;;;8.90;5.22;;;;;;;;;;4994061;28;20252;-60
2022/08/07 02:06:31;;;;;;;7.65;5.43;;;;;;;;;;4992701;28;20253;-60
2022/08/07 02:08:58;;;;;;;10.90;5.15;;;;;;;;;;4999385;28;20705;-60
2022/08/07 02:11:24;;;;;;;6.72;4.80;;;;;;;;;;5002634;28;20271;-60
2022/08/07 02:13:49;;;;;;;8.95;5.25;;;;;;;;;;5001318;28;20672;-60
2022/08/07 02:16:14;;;;;;;9.05;5.50;;;;;;;;;;5002401;28;20231;-60
2022/08/07 02:18:39;;;;;;;8.20;5.20;;;;;;;;;;5001644;28;20307;-60
2022/08/07 02:21:05;;;;;;;10.15;5.22;;;;;;;;;;4996654;28;20217;-60
2022/08/07 02:23:31;;;;;;;7.90;4.68;;;;;;;;;;4981606;28;20296;-60
2022/08/07 02:25:56;;;;;;;8.40;5.38;;;;;;;;;;4993593;28;20316;-60
2022/08/07 02:28:22;;;;;;;11.93;5.50;;;;;;;;;;4993943;28;20667;-60
2022/08/07 02:30:47;;;;;;;10.68;5.68;;;;;;;;;;4994956;28;20232;-60
2022/08/07 02:33:12;;;;;;;9.27;5.65;;;;;;;;;;5002440;28;20220;-60
2022/08/07 02:35:38;;;;;;;9.55;6.18;;;;;;;;;;5001080;28;20232;-60
2022/08/07 02:38:03;;;;;;;8.05;5.15;;;;;;;;;;4997859;28;20331;-60
2022/08/07 02:40:29;;;;;;;8.52;5.28;;;;;;;;;;4983136;28;20307;-60
2022/08/07 02:42:54;;;;;;;9.73;5.72;;;;;;;;;;4983656;28;20680;-60
2022/08/07 02:45:20;;;;;;;11.77;6.90;;;;;;;;;;4983331;28;20221;-60
2022/08/07 02:47:45;;;;;;;10.77;5.88;;;;;;;;;;4993273;28;20594;-60
2022/08/07 02:50:10;;;;;;;9.13;5.80;;;;;;;;;;4992977;28;20323;-60
2022/08/07 02:52:38;;;;;;;9.43;6.00;;;;;;;;;;4988806;28;20393;-60
2022/08/07 02:55:05;;;;;;;9.13;6.03;;;;;;;;;;4980935;28;20312;-60
2022/08/07 02:57:31;;;;;;;9.73;5.93;;;;;;;;;;5001116;28;20262;-60
2022/08/07 02:59:56;;;;;;;8.18;6.05;;;;;;;;;;5002646;28;20220;-60
2022/08/07 03:02:21;;;;;;;9.10;5.95;;;;;;;;;;5001311;28;20236;-60
2022/08/07 03:04:46;;;;;;;9.80;6.05;;;;;;;;;;5002893;28;20566;-60
2022/08/07 03:07:12;;;;;;;11.07;6.63;;;;;;;;;;5001982;28;20243;-60
2022/08/07 03:09:37;;;;;;;9.98;5.97;;;;;;;;;;4997456;28;20216;-60
2022/08/07 03:12:02;;;;;;;9.85;6.18;;;;;;;;;;4993233;28;20259;-60
2022/08/07 03:14:28;;;;;;;9.55;6.43;;;;;;;;;;4993225;28;20286;-61
2022/08/07 03:16:53;;;;;;;9.15;6.28;;;;;;;;;;4996220;28;20274;-60
2022/08/07 03:19:19;;;;;;;8.90;6.50;;;;;;;;;;4984346;28;20221;-60
2022/08/07 03:21:44;;;;;;;10.35;6.68;;;;;;;;;;4997847;28;20300;-60
2022/08/07 03:24:09;;;;;;;10.38;6.78;;;;;;;;;;4999809;28;20219;-60
2022/08/07 03:26:34;;;;;;;8.65;6.20;;;;;;;;;;5002326;28;20217;-60
2022/08/07 03:29:00;;;;;;;9.63;5.93;;;;;;;;;;5001472;28;20259;-60
2022/08/07 03:31:25;;;;;;;9.55;6.75;;;;;;;;;;4998358;28;20428;-60
2022/08/07 03:33:54;;;;;;;12.88;6.53;;;;;;;;;;4982721;28;20256;-60
2022/08/07 03:36:19;;;;;;;10.30;6.82;;;;;;;;;;4993565;28;20232;-60
2022/08/07 03:38:44;;;;;;;11.05;6.60;;;;;;;;;;4990127;28;20221;-60
2022/08/07 03:41:10;;;;;;;9.45;6.30;;;;;;;;;;5000155;28;20259;-60
2022/08/07 03:43:36;;;;;;;9.63;6.30;;;;;;;;;;5001976;28;20676;-60
2022/08/07 03:46:01;;;;;;;14.98;7.32;;;;;;;;;;5001255;28;20219;-60
2022/08/07 03:48:28;;;;;;;10.82;7.25;;;;;;;;;;5001794;28;20208;-60
2022/08/07 03:50:53;;;;;;;11.68;7.20;;;;;;;;;;5001507;28;20288;-60
2022/08/07 03:53:18;;;;;;;10.05;7.32;;;;;;;;;;4990186;28;20755;-60
2022/08/07 03:55:44;;;;;;;8.98;6.70;;;;;;;;;;4976660;28;20323;-60
2022/08/07 03:58:09;;;;;;;12.20;7.75;;;;;;;;;;4991259;28;20708;-60
2022/08/07 04:00:35;;;;;;;10.57;7.22;;;;;;;;;;4992892;28;20220;-60
2022/08/07 04:03:00;;;;;;;12.95;7.03;;;;;;;;;;4999431;28;20208;-60
2022/08/07 04:05:25;;;;;;;12.80;7.55;;;;;;;;;;5002807;28;20574;-60
2022/08/07 04:07:50;;;;;;;12.40;7.57;;;;;;;;;;5005668;28;20230;-60
2022/08/07 04:10:16;;;;;;;12.77;8.13;;;;;;;;;;5005035;28;20303;-60
2022/08/07 04:12:41;;;;;;;13.02;7.97;;;;;;;;;;5003412;28;20212;-60
2022/08/07 04:15:07;;;;;;;14.27;8.43;;;;;;;;;;5005111;28;20311;-60
2022/08/07 04:17:33;;;;;;;11.57;7.65;;;;;;;;;;5001565;28;20622;-60
2022/08/07 04:19:58;;;;;;;11.32;7.55;;;;;;;;;;4991677;28;20296;-60
2022/08/07 04:22:23;;;;;;;12.13;7.78;;;;;;;;;;4977476;28;20227;-60
2022/08/07 04:24:49;;;;;;;12.27;7.88;;;;;;;;;;4981810;28;20224;-60
2022/08/07 04:27:14;;;;;;;12.20;8.02;;;;;;;;;;5002158;28;20234;-60
2022/08/07 04:29:42;;;;;;;10.88;7.68;;;;;;;;;;5005583;28;20212;-60
2022/08/07 04:32:07;;;;;;;13.57;8.48;;;;;;;;;;5004772;28;20647;-60
2022/08/07 04:34:32;;;;;;;11.68;7.50;;;;;;;;;;5004572;28;20236;-60
2022/08/07 04:36:58;;;;;;;11.63;7.55;;;;;;;;;;5004929;28;20233;-60
2022/08/07 04:39:23;;;;;;;9.77;6.88;;;;;;;;;;4987719;28;20251;-60
2022/08/07 04:41:49;;;;;;;10.80;7.40;;;;;;;;;;4977585;28;20223;-61
2022/08/07 04:44:14;;;;;;;10.52;7.35;;;;;;;;;;4995505;28;20220;-60
2022/08/07 04:46:51;;;;;;;9.73;7.25;;;;;;;;;;4998134;28;20227;-61
2022/08/07 04:49:26;;;;;;;12.50;7.85;;;;;;;;;;5001421;28;21004;-61
2022/08/07 04:52:00;;;;;;;12.10;8.93;;;;;;;;;;5003513;28;20909;-62
2022/08/07 04:54:33;;;;;;;11.40;8.15;;;;;;;;;;4984422;28;20220;-61
2022/08/07 04:57:05;;;;;;;11.60;7.78;;;;;;;;;;4992512;28;20228;-61
2022/08/07 04:59:32;;;;;;;12.27;7.55;;;;;;;;;;4985337;28;20213;-61
2022/08/07 05:02:01;;;;;;;11.73;7.88;;;;;;;;;;4986208;28;20208;-63
2022/08/07 05:04:32;;;;;;;10.63;7.80;;;;;;;;;;4978638;28;20314;-62
2022/08/07 05:07:05;;;;;;;11.07;7.45;;;;;;;;;;4977999;28;20214;-62
2022/08/07 05:09:31;;;;;;;12.77;7.93;;;;;;;;;;4994952;28;20415;-62
2022/08/07 05:11:56;;;;;;;12.30;8.38;;;;;;;;;;5003898;28;20422;-61
2022/08/07 05:14:24;;;;;;;11.32;7.72;;;;;;;;;;5011982;28;20227;-62
2022/08/07 05:16:49;;;;;;;11.38;7.95;;;;;;;;;;5021030;28;20295;-61
2022/08/07 05:19:16;;;;;;;12.65;7.60;;;;;;;;;;5021788;28;20299;-61
2022/08/07 05:21:42;;;;;;;12.35;8.25;;;;;;;;;;5021701;28;20215;-63
2022/08/07 05:24:09;;;;;;;10.85;7.85;;;;;;;;;;5016849;28;20204;-62
2022/08/07 05:26:34;;;;;;;11.38;7.68;;;;;;;;;;5022864;28;20257;-63
2022/08/07 05:29:00;;;;;;;10.38;7.68;;;;;;;;;;5024109;28;20248;-63
2022/08/07 05:31:26;;;;;;;11.15;8.23;;;;;;;;;;5031206;28;20725;-62
2022/08/07 05:33:51;;;;;;;12.45;8.82;;;;;;;;;;5022703;28;20710;-61
2022/08/07 05:36:17;;;;;;;12.38;8.45;;;;;;;;;;5013802;28;20231;-61
2022/08/07 05:38:42;;;;;;;13.77;8.70;;;;;;;;;;5018936;28;20219;-61
2022/08/07 05:41:08;;;;;;;13.77;8.40;;;;;;;;;;5013542;28;20216;-63
2022/08/07 05:43:33;;;;;;;13.98;8.25;;;;;;;;;;5013216;28;20208;-63
2022/08/07 05:45:59;;;;;;;12.85;8.27;;;;;;;;;;5012459;28;20306;-67
2022/08/07 05:48:25;;;;;;;10.98;8.15;;;;;;;;;;5012234;28;20212;-64
2022/08/07 05:50:50;;;;;;;12.55;8.52;;;;;;;;;;5012960;28;20553;-63
2022/08/07 05:53:15;;;;;;;10.60;7.93;;;;;;;;;;5004475;28;20224;-63
2022/08/07 05:55:40;;;;;;;13.88;9.13;;;;;;;;;;5013512;28;20221;-63
2022/08/07 05:58:06;;;;;;;11.57;8.32;;;;;;;;;;5011096;28;20695;-64
2022/08/07 06:00:32;;;;;;;13.25;8.90;;;;;;;;;;5012212;28;20212;-63
2022/08/07 06:02:57;;;;;;;11.82;8.05;;;;;;;;;;5013695;28;20766;-64
2022/08/07 06:05:27;;;;;;;12.73;8.90;;;;;;;;;;5010887;28;20311;-64
2022/08/07 06:07:52;;;;;;;12.68;8.75;;;;;;;;;;5011839;28;20224;-64
2022/08/07 06:10:17;;;;;;;10.93;8.38;;;;;;;;;;5011442;28;20220;-64
2022/08/07 06:12:43;;;;;;;14.50;9.27;;;;;;;;;;5012442;28;20216;-64
2022/08/07 06:15:08;;;;;;;10.80;8.00;;;;;;;;;;5011078;28;20264;-65
2022/08/07 06:17:33;;;;;;;13.70;8.73;;;;;;;;;;5013066;28;20212;-64
2022/08/07 06:19:59;;;;;;;12.27;7.97;;;;;;;;;;5010878;28;20197;-64
2022/08/07 06:22:24;;;;;;;13.75;8.20;;;;;;;;;;5012428;28;20554;-64
2022/08/07 06:24:49;;;;;;;10.75;7.93;;;;;;;;;;5012710;28;20219;-64
2022/08/07 06:27:21;;;;;;;13.52;7.43;;;;;;;;;;5010350;28;20710;-64
2022/08/07 06:29:46;;;;;;;11.90;8.02;;;;;;;;;;5013000;28;20227;-64
2022/08/07 06:32:11;;;;;;;13.80;8.60;;;;;;;;;;5012272;28;20204;-65
2022/08/07 06:34:37;;;;;;;12.52;7.75;;;;;;;;;;5011047;28;20220;-64
2022/08/07 06:37:02;;;;;;;9.40;7.00;;;;;;;;;;5011291;28;20271;-64
2022/08/07 06:39:27;;;;;;;11.05;7.80;;;;;;;;;;5012536;28;20212;-64
2022/08/07 06:41:55;;;;;;;10.68;7.72;;;;;;;;;;5012443;28;20208;-64
2022/08/07 06:44:20;;;;;;;11.52;7.47;;;;;;;;;;5011323;28;20275;-65
2022/08/07 06:46:46;;;;;;;10.13;6.97;;;;;;;;;;5010731;28;20575;-65
2022/08/07 06:49:11;;;;;;;9.32;7.00;;;;;;;;;;5009462;28;20220;-65
2022/08/07 06:51:36;;;;;;;13.60;6.88;;;;;;;;;;5011996;28;20204;-65
2022/08/07 06:54:02;;;;;;;9.38;6.78;;;;;;;;;;5011548;28;20299;-66
2022/08/07 06:56:42;;;;;;;11.63;7.40;;;;;;;;;;5011281;28;20217;-66
2022/08/07 06:59:09;;;;;;;10.23;6.30;;;;;;;;;;5011198;28;20216;-66
2022/08/07 07:01:34;;;;;;;10.88;6.22;;;;;;;;;;5007083;28;20274;-65
2022/08/07 07:03:59;;;;;;;9.30;6.45;;;;;;;;;;5011546;28;20612;-65
2022/08/07 07:06:25;;;;;;;9.15;6.22;;;;;;;;;;5011838;28;20320;-66
2022/08/07 07:08:50;;;;;;;9.98;6.18;;;;;;;;;;5012039;28;20695;-65
2022/08/07 07:11:15;;;;;;;9.82;5.90;;;;;;;;;;5012106;28;20212;-65
2022/08/07 07:13:47;;;;;;;9.40;5.82;;;;;;;;;;5011500;28;20609;-65
2022/08/07 07:16:14;;;;;;;9.60;5.75;;;;;;;;;;5009834;28;20235;-66
2022/08/07 07:18:42;;;;;;;8.95;5.57;;;;;;;;;;5012640;28;20216;-65
2022/08/07 07:21:09;;;;;;;9.60;6.03;;;;;;;;;;5011759;28;20714;-65
2022/08/07 07:23:35;;;;;;;9.90;5.38;;;;;;;;;;5010424;28;20223;-65
2022/08/07 07:26:01;;;;;;;10.02;5.80;;;;;;;;;;5012088;28;20213;-65
2022/08/07 07:28:28;;;;;;;8.88;4.40;;;;;;;;;;5010629;28;20204;-65
2022/08/07 07:30:56;;;;;;;9.00;5.47;;;;;;;;;;5010511;28;20249;-65
2022/08/07 07:33:21;;;;;;;9.57;5.57;;;;;;;;;;5010922;28;20248;-65
2022/08/07 07:35:47;;;;;;;7.88;4.40;;;;;;;;;;5010589;28;20259;-65
2022/08/07 07:38:12;;;;;;;7.53;5.03;;;;;;;;;;5007960;28;20201;-65
2022/08/07 07:40:37;;;;;;;7.20;4.50;;;;;;;;;;5014354;28;20620;-65
2022/08/07 07:43:03;;;;;;;5.80;3.90;;;;;;;;;;5013731;28;20216;-65
2022/08/07 07:45:28;;;;;;;8.55;4.00;;;;;;;;;;5016136;28;20211;-65
2022/08/07 07:47:56;;;;;;;8.35;3.90;;;;;;;;;;5014904;28;20208;-64
2022/08/07 07:50:21;;;;;;;7.55;4.22;;;;;;;;;;5014655;28;20219;-65
2022/08/07 07:52:47;;;;;;;7.88;4.22;;;;;;;;;;5014433;28;20216;-65
2022/08/07 07:55:12;;;;;;;9.68;4.63;;;;;;;;;;5015289;28;20703;-65
2022/08/07 07:57:38;;;;;;;7.50;4.32;;;;;;;;;;5013790;28;20213;-65
2022/08/07 08:00:03;;;;;;;6.30;4.15;;;;;;;;;;5014187;28;20224;-64
2022/08/07 08:02:29;;;;;;;6.07;3.78;;;;;;;;;;5015858;28;20208;-64
2022/08/07 08:04:54;;;;;;;9.25;4.05;;;;;;;;;;5013891;28;20574;-64
2022/08/07 08:07:19;;;;;;;6.15;3.55;;;;;;;;;;5013478;28;20575;-64
2022/08/07 08:09:46;;;;;;;9.82;4.20;;;;;;;;;;5015764;28;20211;-65
2022/08/07 08:12:11;;;;;;;7.32;3.53;;;;;;;;;;5013267;28;20284;-65
2022/08/07 08:14:37;;;;;;;5.93;3.70;;;;;;;;;;5014279;28;20212;-65
2022/08/07 08:17:03;;;;;;;5.85;3.00;;;;;;;;;;5014972;28;20300;-64
2022/08/07 08:19:28;;;;;;;7.32;3.47;;;;;;;;;;5013318;28;20215;-64
2022/08/07 08:27:27;;;;;;;7.43;2.75;;;;;;;;;;5006252;28;20216;-64
2022/08/07 08:29:55;;;;;;;5.40;3.42;;;;;;;;;;5014183;28;20271;-64
2022/08/07 08:32:21;;;;;;;7.28;2.90;;;;;;;;;;5012612;28;20275;-65
2022/08/07 08:34:47;;;;;;;5.68;2.83;;;;;;;;;;5013996;28;20208;-64
2022/08/07 08:37:12;;;;;;;6.28;3.60;;;;;;;;;;5012722;28;20244;-65
2022/08/07 08:39:38;;;;;;;6.18;2.88;;;;;;;;;;5014115;28;20246;-64
2022/08/07 08:42:04;;;;;;;5.93;3.10;;;;;;;;;;5014304;28;20255;-65
2022/08/07 08:44:32;;;;;;;7.40;2.75;;;;;;;;;;5013907;28;20204;-64
2022/08/07 08:47:04;;;;;;;6.35;2.80;;;;;;;;;;5012893;28;20295;-65
2022/08/07 08:49:36;;;;;;;4.97;2.67;;;;;;;;;;5013350;28;20263;-65
2022/08/07 08:52:09;;;;;;;4.25;2.63;;;;;;;;;;5014078;28;20208;-66
2022/08/07 08:54:54;;;;;;;4.95;2.40;;;;;;;;;;5012647;28;20287;-64
2022/08/07 08:57:33;;;;;;;5.40;2.65;;;;;;;;;;5013849;28;20234;-64
2022/08/07 09:00:00;;;;;;;5.25;2.42;;;;;;;;;;5014528;28;20589;-64
2022/08/07 09:02:32;;;;;;;3.97;2.55;;;;;;;;;;5012489;28;20296;-64
2022/08/07 09:04:57;;;;;;;4.60;2.50;;;;;;;;;;5013389;28;20223;-65
2022/08/07 09:07:26;;;;;;;5.25;2.25;;;;;;;;;;5013310;28;20225;-66
2022/08/07 09:09:58;;;;;;;4.70;2.55;;;;;;;;;;5014877;28;20208;-64
2022/08/07 09:12:28;;;;;;;9.52;3.20;;;;;;;;;;5012822;28;20271;-65
2022/08/07 09:15:02;;;;;;;4.05;2.35;;;;;;;;;;5013602;28;20311;-64
2022/08/07 09:17:31;;;;;;;6.32;2.70;;;;;;;;;;5000868;28;20219;-64
2022/08/07 09:19:58;;;;;;;6.63;2.30;;;;;;;;;;5012061;28;20213;-64
2022/08/07 09:22:33;;;;;;;4.35;2.42;;;;;;;;;;5011764;28;20197;-64
2022/08/07 09:25:05;;;;;;;5.30;2.20;;;;;;;;;;5010490;28;20213;-63
2022/08/07 09:27:33;;;;;;;4.60;2.65;;;;;;;;;;5012536;28;20224;-64
2022/08/07 09:30:02;;;;;;;6.03;2.47;;;;;;;;;;5012066;28;20679;-63
2022/08/07 09:32:51;;;;;;;4.85;2.33;;;;;;;;;;4998985;28;20213;-65
2022/08/07 09:35:16;;;;;;;4.00;2.30;;;;;;;;;;4988392;28;20229;-66
2022/08/07 09:37:43;;;;;;;5.05;2.42;;;;;;;;;;4987341;28;20220;-66
2022/08/07 09:40:21;;;;;;;3.83;2.42;;;;;;;;;;5000538;28;20227;-66
2022/08/07 09:43:06;;;;;;;5.07;2.72;;;;;;;;;;4989009;28;20224;-67
2022/08/07 09:45:39;;;;;;;6.05;3.10;;;;;;;;;;5007013;28;20216;-67
2022/08/07 09:48:23;;;;;;;7.00;2.65;;;;;;;;;;5005229;28;20308;-67
2022/08/07 09:50:54;;;;;;;6.60;2.92;;;;;;;;;;4992848;28;20244;-66
2022/08/07 09:53:21;;;;;;;7.10;2.80;;;;;;;;;;4993637;28;20216;-65
2022/08/07 09:56:01;;;;;;;5.55;2.83;;;;;;;;;;5002185;28;20233;-65
2022/08/07 09:58:47;;;;;;;5.00;2.60;;;;;;;;;;4998250;28;20298;-66
2022/08/07 10:01:22;;;;;;;4.72;2.70;;;;;;;;;;4997368;28;20216;-65
2022/08/07 10:03:50;;;;;;;4.70;2.53;;;;;;;;;;5003915;28;20223;-64
2022/08/07 10:06:34;;;;;;;6.90;2.55;;;;;;;;;;5003975;28;20263;-65
2022/08/07 10:08:59;;;;;;;4.55;2.40;;;;;;;;;;5006469;28;20224;-66
2022/08/07 10:11:24;;;;;;;5.32;2.50;;;;;;;;;;5005812;28;20266;-66
2022/08/07 10:13:55;;;;;;;5.55;2.65;;;;;;;;;;5007041;28;20773;-66
2022/08/07 10:16:22;;;;;;;6.05;2.70;;;;;;;;;;5004559;28;20797;-67
2022/08/07 10:18:56;;;;;;;3.88;2.40;;;;;;;;;;5001567;28;20224;-66
2022/08/07 10:21:28;;;;;;;3.42;2.25;;;;;;;;;;4997070;28;20222;-68
2022/08/07 10:23:58;;;;;;;3.38;2.15;;;;;;;;;;4993715;28;20229;-65
2022/08/07 10:26:26;;;;;;;5.53;2.83;;;;;;;;;;4983987;28;20604;-66
2022/08/07 10:28:53;;;;;;;5.05;2.47;;;;;;;;;;5006563;28;20223;-66
2022/08/07 10:31:19;;;;;;;5.25;2.50;;;;;;;;;;5005692;28;20219;-65
2022/08/07 10:33:47;;;;;;;3.60;2.30;;;;;;;;;;5006034;28;20217;-66
2022/08/07 10:36:34;;;;;;;6.47;2.70;;;;;;;;;;5004411;28;20232;-66
2022/08/07 10:39:02;;;;;;;5.18;2.30;;;;;;;;;;4992695;28;20274;-66
2022/08/07 10:41:28;;;;;;;5.32;2.50;;;;;;;;;;4992209;28;20250;-67
2022/08/07 10:43:55;;;;;;;2.92;2.20;;;;;;;;;;4980005;28;20308;-68
2022/08/07 10:46:24;;;;;;;4.60;2.13;;;;;;;;;;4976736;28;20599;-64
2022/08/07 10:48:56;;;;;;;6.03;2.58;;;;;;;;;;5002635;28;20650;-65
2022/08/07 10:51:31;;;;;;;3.17;2.00;;;;;;;;;;5004620;28;20218;-66
2022/08/07 10:54:01;;;;;;;3.75;2.20;;;;;;;;;;4987438;28;20586;-66
2022/08/07 10:56:27;;;;;;;5.47;2.35;;;;;;;;;;5004985;28;20274;-66
2022/08/07 10:59:16;;;;;;;3.75;2.20;;;;;;;;;;4987164;28;21176;-67
2022/08/07 11:02:08;;;;;;;3.90;1.80;;;;;;;;;;5005328;28;20251;-67
2022/08/07 11:04:36;;;;;;;4.57;2.40;;;;;;;;;;4999732;28;20310;-66
2022/08/07 11:07:05;;;;;;;4.95;2.40;;;;;;;;;;4996863;28;20248;-69
2022/08/07 11:09:38;;;;;;;4.40;1.90;;;;;;;;;;4996595;28;20215;-67
2022/08/07 11:12:05;;;;;;;2.72;1.88;;;;;;;;;;5003632;28;20216;-67
2022/08/07 11:14:33;;;;;;;4.93;2.10;;;;;;;;;;4989922;28;20204;-66
2022/08/07 11:16:58;;;;;;;4.53;2.15;;;;;;;;;;5009976;28;20232;-65
2022/08/07 11:19:28;;;;;;;3.70;2.10;;;;;;;;;;5008194;28;20298;-66
2022/08/07 11:22:11;;;;;;;4.13;2.00;;;;;;;;;;5009735;28;20269;-65
2022/08/07 11:24:38;;;;;;;5.13;2.80;;;;;;;;;;4999525;28;20220;-65
2022/08/07 11:27:10;;;;;;;3.90;2.20;;;;;;;;;;5002355;28;20714;-66
2022/08/07 11:29:37;;;;;;;7.18;2.38;;;;;;;;;;4999795;28;20240;-66
2022/08/07 11:32:13;;;;;;;5.95;3.13;;;;;;;;;;4999872;28;20217;-66
2022/08/07 11:34:39;;;;;;;6.05;2.50;;;;;;;;;;5008471;28;20310;-66
2022/08/07 11:37:09;;;;;;;5.63;2.83;;;;;;;;;;5008873;28;20232;-66
2022/08/07 11:39:50;;;;;;;3.65;2.65;;;;;;;;;;4992959;28;20213;-66
2022/08/07 11:42:19;;;;;;;5.93;2.90;;;;;;;;;;4993116;28;20597;-65
2022/08/07 11:44:50;;;;;;;5.68;2.47;;;;;;;;;;5009965;28;20252;-65
2022/08/07 11:47:15;;;;;;;5.25;2.53;;;;;;;;;;5007380;28;20351;-65
2022/08/07 11:49:56;;;;;;;9.13;2.60;;;;;;;;;;5003205;28;20213;-65
2022/08/07 11:52:26;;;;;;;5.30;2.55;;;;;;;;;;4995431;28;20703;-65
2022/08/07 11:55:01;;;;;;;5.93;2.60;;;;;;;;;;4999752;28;20527;-65
2022/08/07 11:57:29;;;;;;;3.88;2.10;;;;;;;;;;5006484;28;20223;-66
2022/08/07 11:59:54;;;;;;;4.78;2.47;;;;;;;;;;5009493;28;20248;-66
2022/08/07 12:02:25;;;;;;;4.93;2.58;;;;;;;;;;5007812;28;20274;-65
2022/08/07 12:04:52;;;;;;;3.97;2.20;;;;;;;;;;5009074;28;20283;-66
2022/08/07 12:07:22;;;;;;;3.95;2.40;;;;;;;;;;4989658;28;20327;-66
2022/08/07 12:09:58;;;;;;;3.55;2.30;;;;;;;;;;5007790;28;20290;-65
2022/08/07 12:12:25;;;;;;;4.25;2.28;;;;;;;;;;5002232;28;20204;-65
2022/08/07 12:14:54;;;;;;;3.45;2.10;;;;;;;;;;5000095;28;20224;-66
2022/08/07 12:17:19;;;;;;;4.38;2.10;;;;;;;;;;4998345;28;20302;-64
2022/08/07 12:19:49;;;;;;;4.80;2.40;;;;;;;;;;5005952;28;20706;-64
2022/08/07 12:22:14;;;;;;;4.82;2.33;;;;;;;;;;5008928;28;20221;-64
2022/08/07 12:27:40;;;;;;;4.63;2.20;;;;;;;;;;5008608;28;20231;-64
2022/08/07 12:30:06;;;;;;;4.43;2.30;;;;;;;;;;5008407;28;20213;-65
2022/08/07 12:32:33;;;;;;;3.50;2.50;;;;;;;;;;5008185;28;20236;-65
2022/08/07 12:35:01;;;;;;;4.35;2.40;;;;;;;;;;5001396;28;20217;-65
2022/08/07 12:37:26;;;;;;;3.35;2.20;;;;;;;;;;5000433;28;20690;-64
2022/08/07 12:39:52;;;;;;;3.90;2.30;;;;;;;;;;4980018;28;20209;-64
2022/08/07 12:42:20;;;;;;;6.07;2.58;;;;;;;;;;4988666;28;20279;-65
2022/08/07 12:44:46;;;;;;;6.10;2.40;;;;;;;;;;5007110;28;20332;-64
2022/08/07 12:47:18;;;;;;;6.78;2.40;;;;;;;;;;5007038;28;20258;-65
2022/08/07 12:49:49;;;;;;;4.15;2.40;;;;;;;;;;5008555;28;20212;-66
2022/08/07 12:52:14;;;;;;;4.65;2.70;;;;;;;;;;4989140;28;20213;-65
2022/08/07 12:54:42;;;;;;;3.28;2.13;;;;;;;;;;5006098;28;20220;-64
2022/08/07 12:57:07;;;;;;;4.65;2.60;;;;;;;;;;5003151;28;20327;-65
2022/08/07 12:59:32;;;;;;;4.75;2.60;;;;;;;;;;4999653;28;20726;-66
2022/08/07 13:02:01;;;;;;;4.20;2.45;;;;;;;;;;4998538;28;20248;-65
2022/08/07 13:04:28;;;;;;;4.82;2.45;;;;;;;;;;5003635;28;20254;-65
2022/08/07 13:06:57;;;;;;;3.80;2.35;;;;;;;;;;5005679;28;20236;-65
2022/08/07 13:09:37;;;;;;;4.28;2.40;;;;;;;;;;5007619;28;20224;-65
2022/08/07 13:12:11;;;;;;;3.30;2.28;;;;;;;;;;5007711;28;20219;-65
2022/08/07 13:14:51;;;;;;;3.65;2.30;;;;;;;;;;5006540;28;20228;-65
2022/08/07 13:17:19;;;;;;;6.63;2.15;;;;;;;;;;5007407;28;20232;-65
2022/08/07 13:20:07;;;;;;;3.58;2.40;;;;;;;;;;5001666;28;20267;-65
2022/08/07 13:22:34;;;;;;;4.30;2.45;;;;;;;;;;4998392;28;20753;-65
2022/08/07 13:25:05;;;;;;;3.47;2.30;;;;;;;;;;4985693;28;20556;-66
2022/08/07 13:27:34;;;;;;;3.35;2.38;;;;;;;;;;5005475;28;20205;-66
2022/08/07 13:30:00;;;;;;;3.65;2.28;;;;;;;;;;5006614;28;20307;-66
2022/08/07 13:32:28;;;;;;;3.78;2.30;;;;;;;;;;5009391;28;20205;-66
2022/08/07 13:35:05;;;;;;;4.75;2.60;;;;;;;;;;5031262;28;20246;-66
2022/08/07 13:37:31;;;;;;;4.82;2.60;;;;;;;;;;5031030;28;20274;-67
2022/08/07 13:40:09;;;;;;;5.38;2.45;;;;;;;;;;5013786;28;20619;-66
2022/08/07 13:42:35;;;;;;;3.65;2.22;;;;;;;;;;5006948;28;20258;-66
2022/08/07 13:45:01;;;;;;;4.28;2.50;;;;;;;;;;5012708;28;20217;-66
2022/08/07 13:47:26;;;;;;;4.53;2.60;;;;;;;;;;5012952;28;20207;-66
2022/08/07 13:49:52;;;;;;;4.28;2.40;;;;;;;;;;5012839;28;20231;-66
2022/08/07 13:52:17;;;;;;;5.18;2.72;;;;;;;;;;5013073;28;20214;-66
2022/08/07 13:54:42;;;;;;;3.35;2.58;;;;;;;;;;5012058;28;20204;-67
2022/08/07 13:57:12;;;;;;;4.97;2.55;;;;;;;;;;5013020;28;20228;-69
2022/08/07 13:59:38;;;;;;;4.78;2.60;;;;;;;;;;5013417;28;20645;-66
2022/08/07 14:02:08;;;;;;;4.80;2.67;;;;;;;;;;5011014;28;20259;-66
2022/08/07 14:04:42;;;;;;;4.97;2.70;;;;;;;;;;5011526;28;20205;-66
2022/08/07 14:07:08;;;;;;;4.57;2.53;;;;;;;;;;5012633;28;20240;-66
2022/08/07 14:09:33;;;;;;;3.90;2.88;;;;;;;;;;5011831;28;20205;-65
2022/08/07 14:12:01;;;;;;;4.70;2.50;;;;;;;;;;5011408;28;20217;-65
2022/08/07 14:14:29;;;;;;;4.07;2.65;;;;;;;;;;5011726;28;20248;-65
2022/08/07 14:16:56;;;;;;;3.08;2.20;;;;;;;;;;5009888;28;20687;-64
2022/08/07 14:19:22;;;;;;;5.55;2.75;;;;;;;;;;5011243;28;20640;-65
2022/08/07 14:21:49;;;;;;;3.40;2.05;;;;;;;;;;5011664;28;20300;-65
2022/08/07 14:24:28;;;;;;;4.93;2.25;;;;;;;;;;5010429;28;20209;-65
2022/08/07 14:26:54;;;;;;;3.10;2.13;;;;;;;;;;5012853;28;20703;-65
2022/08/07 14:29:22;;;;;;;4.40;2.40;;;;;;;;;;5008901;28;20291;-65
2022/08/07 14:31:48;;;;;;;3.78;2.53;;;;;;;;;;5010659;28;20209;-66
2022/08/07 14:34:13;;;;;;;3.22;2.33;;;;;;;;;;5012582;28;20631;-66
2022/08/07 14:36:38;;;;;;;5.95;2.50;;;;;;;;;;5010491;28;20302;-66
2022/08/07 14:39:04;;;;;;;4.07;2.55;;;;;;;;;;5010622;28;20208;-66
2022/08/07 14:41:31;;;;;;;3.72;2.30;;;;;;;;;;5012439;28;20236;-66
2022/08/07 14:43:57;;;;;;;4.07;2.60;;;;;;;;;;5012293;28;20216;-66
2022/08/07 14:46:23;;;;;;;5.00;2.50;;;;;;;;;;5011638;28;20227;-66
2022/08/07 14:48:48;;;;;;;3.83;2.38;;;;;;;;;;5012647;28;20224;-66
2022/08/07 14:51:17;;;;;;;5.60;2.50;;;;;;;;;;5010607;28;20699;-66